Погода Нуэве-де-Хулиона неделю

Буэнос-Айрес, Аргентина

04 - 10 февраля
  • 04февраля
    Сегодня
    +16°
    +30°
    Практически безоблачно
    ВремяПогодаТемператураВлажностьДавлениеВетер, м/сВероятность осадков
    00:00Ясно и безоблачно+20°C66 %756 мм2.8 м/с5 %
    03:00Ясно и безоблачно+17°C78 %756 мм1.7 м/с5 %
    06:00Ясно и безоблачно+16°C88 %756 мм1.4 м/с5 %
    09:00Ясно и безоблачно+20°C72 %757 мм1.5 м/с5 %
    12:00Практически безоблачно+24°C53 %756 мм2.4 м/с20 %
    15:00Практически безоблачно+28°C44 %755 мм3.2 м/с5 %
    18:00Практически безоблачно+29°C40 %754 мм3.0 м/с5 %
    21:00Ясно и безоблачно+25°C57 %754 мм2.9 м/с5 %
  • 05февраля
    Воскресенье
    +20°
    +32°
    Ясно и безоблачно
    ВремяПогодаТемператураВлажностьДавлениеВетер, м/сВероятность осадков
    00:00Ясно и безоблачно+20°C67 %754 мм2.5 м/с5 %
    03:00Ясно и безоблачно+18°C70 %753 мм2.4 м/с5 %
    06:00Ясно и безоблачно+17°C73 %753 мм2.6 м/с5 %
    09:00Ясно и безоблачно+22°C59 %753 мм3.6 м/с5 %
    12:00Ясно и безоблачно+28°C42 %752 мм5.1 м/с5 %
    15:00Ясно и безоблачно+31°C38 %750 мм4.5 м/с5 %
    18:00Ясно и безоблачно+32°C36 %748 мм3.6 м/с5 %
    21:00Облачно с прояснениями+27°C52 %748 мм2.3 м/с5 %
  • 06февраля
    Понедельник
    +19°
    +35°
    Ясно и безоблачно
    ВремяПогодаТемператураВлажностьДавлениеВетер, м/сВероятность осадков
    00:00Ясно и безоблачно+23°C58 %748 мм2.9 м/с5 %
    03:00Ясно и безоблачно+21°C59 %748 мм3.7 м/с5 %
    06:00Ясно и безоблачно+21°C66 %748 мм2.7 м/с5 %
    09:00Ясно и безоблачно+25°C58 %750 мм3.8 м/с5 %
    12:00Ясно и безоблачно+31°C43 %750 мм4.4 м/с4 %
    15:00Ясно и безоблачно+35°C36 %748 мм4.5 м/с3 %
    18:00Облачно с прояснениями+36°C35 %748 мм2.4 м/с14 %
    21:00Небольшая облачность, ливень+25°C83 %750 мм5.3 м/с28 %
  • 07февраля
    Вторник
    +19°
    +35°
    Практически безоблачно
    ВремяПогодаТемператураВлажностьДавлениеВетер, м/сВероятность осадков
    00:00Облачно с прояснениями+22°C80 %750 мм3.6 м/с31 %
    03:00Ясно и безоблачно+20°C86 %749 мм3.1 м/с10 %
    06:00Ясно и безоблачно+19°C91 %749 мм2.9 м/с4 %
    09:00Ясно и безоблачно+24°C71 %750 мм3.0 м/с4 %
    12:00Ясно и безоблачно+29°C52 %750 мм2.0 м/с5 %
    15:00Практически безоблачно+33°C46 %748 мм0.9 м/с5 %
    18:00Ясно и безоблачно+34°C46 %748 мм1.9 м/с5 %
    21:00Ясно и безоблачно+29°C63 %749 мм2.3 м/с5 %
Мы используем cookies
Соглашаюсь